sensor_id;sensor_type;location;lat;lon;timestamp;P1;durP1;ratioP1;P2;durP2;ratioP2
2021;SDS011;1015;49.756;6.994;2022-09-09T00:02:10;4.90;;;3.10;;
2021;SDS011;1015;49.756;6.994;2022-09-09T00:04:46;4.77;;;3.37;;
2021;SDS011;1015;49.756;6.994;2022-09-09T00:07:25;4.80;;;3.17;;
2021;SDS011;1015;49.756;6.994;2022-09-09T00:10:09;4.40;;;2.90;;
2021;SDS011;1015;49.756;6.994;2022-09-09T00:12:47;6.03;;;2.77;;
2021;SDS011;1015;49.756;6.994;2022-09-09T00:15:21;6.57;;;3.40;;
2021;SDS011;1015;49.756;6.994;2022-09-09T00:17:54;4.03;;;3.40;;
2021;SDS011;1015;49.756;6.994;2022-09-09T00:20:28;3.87;;;2.80;;
2021;SDS011;1015;49.756;6.994;2022-09-09T00:23:00;2.93;;;2.60;;
2021;SDS011;1015;49.756;6.994;2022-09-09T00:25:33;4.10;;;2.97;;
2021;SDS011;1015;49.756;6.994;2022-09-09T00:28:08;3.83;;;2.70;;
2021;SDS011;1015;49.756;6.994;2022-09-09T00:30:43;5.50;;;2.83;;
2021;SDS011;1015;49.756;6.994;2022-09-09T00:33:15;4.77;;;2.80;;
2021;SDS011;1015;49.756;6.994;2022-09-09T00:35:47;3.53;;;2.87;;
2021;SDS011;1015;49.756;6.994;2022-09-09T00:38:15;3.90;;;2.73;;
2021;SDS011;1015;49.756;6.994;2022-09-09T00:40:46;4.80;;;2.80;;
2021;SDS011;1015;49.756;6.994;2022-09-09T00:43:23;4.07;;;2.67;;
2021;SDS011;1015;49.756;6.994;2022-09-09T00:49:19;4.47;;;2.37;;
2021;SDS011;1015;49.756;6.994;2022-09-09T00:51:56;6.60;;;2.97;;
2021;SDS011;1015;49.756;6.994;2022-09-09T00:54:33;7.47;;;2.97;;
2021;SDS011;1015;49.756;6.994;2022-09-09T00:57:13;5.20;;;2.73;;
2021;SDS011;1015;49.756;6.994;2022-09-09T00:59:55;3.73;;;2.73;;
2021;SDS011;1015;49.756;6.994;2022-09-09T01:02:29;2.90;;;2.70;;
2021;SDS011;1015;49.756;6.994;2022-09-09T01:05:02;4.23;;;2.30;;
2021;SDS011;1015;49.756;6.994;2022-09-09T01:07:37;5.37;;;3.30;;
2021;SDS011;1015;49.756;6.994;2022-09-09T01:10:05;6.20;;;2.97;;
2021;SDS011;1015;49.756;6.994;2022-09-09T01:12:41;7.60;;;3.40;;
2021;SDS011;1015;49.756;6.994;2022-09-09T01:15:10;6.13;;;3.33;;
2021;SDS011;1015;49.756;6.994;2022-09-09T01:17:46;3.90;;;3.47;;
2021;SDS011;1015;49.756;6.994;2022-09-09T01:20:19;6.10;;;3.67;;
2021;SDS011;1015;49.756;6.994;2022-09-09T01:22:55;5.97;;;3.60;;
2021;SDS011;1015;49.756;6.994;2022-09-09T01:25:59;4.93;;;4.00;;
2021;SDS011;1015;49.756;6.994;2022-09-09T01:28:45;5.90;;;4.10;;
2021;SDS011;1015;49.756;6.994;2022-09-09T01:31:15;6.60;;;4.10;;
2021;SDS011;1015;49.756;6.994;2022-09-09T01:33:44;6.20;;;4.50;;
2021;SDS011;1015;49.756;6.994;2022-09-09T01:36:12;6.93;;;4.30;;
2021;SDS011;1015;49.756;6.994;2022-09-09T01:38:46;7.50;;;4.77;;
2021;SDS011;1015;49.756;6.994;2022-09-09T01:41:14;7.30;;;4.70;;
2021;SDS011;1015;49.756;6.994;2022-09-09T01:43:41;7.77;;;4.93;;
2021;SDS011;1015;49.756;6.994;2022-09-09T01:46:08;5.33;;;4.60;;
2021;SDS011;1015;49.756;6.994;2022-09-09T01:48:36;6.03;;;4.67;;
2021;SDS011;1015;49.756;6.994;2022-09-09T01:51:03;6.97;;;4.30;;
2021;SDS011;1015;49.756;6.994;2022-09-09T01:53:31;9.00;;;5.00;;
2021;SDS011;1015;49.756;6.994;2022-09-09T01:56:02;7.37;;;4.90;;
2021;SDS011;1015;49.756;6.994;2022-09-09T01:58:44;11.13;;;5.60;;
2021;SDS011;1015;49.756;6.994;2022-09-09T02:01:22;9.20;;;5.80;;
2021;SDS011;1015;49.756;6.994;2022-09-09T02:03:57;9.27;;;5.23;;
2021;SDS011;1015;49.756;6.994;2022-09-09T02:06:30;5.97;;;5.00;;
2021;SDS011;1015;49.756;6.994;2022-09-09T02:09:03;7.73;;;5.30;;
2021;SDS011;1015;49.756;6.994;2022-09-09T02:11:31;6.00;;;5.00;;
2021;SDS011;1015;49.756;6.994;2022-09-09T02:14:02;7.03;;;4.77;;
2021;SDS011;1015;49.756;6.994;2022-09-09T02:16:34;6.23;;;4.83;;
2021;SDS011;1015;49.756;6.994;2022-09-09T02:19:06;5.90;;;4.80;;
2021;SDS011;1015;49.756;6.994;2022-09-09T02:21:38;6.37;;;4.70;;
2021;SDS011;1015;49.756;6.994;2022-09-09T02:24:07;5.93;;;4.37;;
2021;SDS011;1015;49.756;6.994;2022-09-09T02:26:37;5.13;;;4.50;;
2021;SDS011;1015;49.756;6.994;2022-09-09T02:29:09;7.90;;;4.10;;
2021;SDS011;1015;49.756;6.994;2022-09-09T02:31:39;5.30;;;3.83;;
2021;SDS011;1015;49.756;6.994;2022-09-09T02:34:08;4.40;;;3.40;;
2021;SDS011;1015;49.756;6.994;2022-09-09T02:36:38;7.53;;;3.97;;
2021;SDS011;1015;49.756;6.994;2022-09-09T02:39:09;4.17;;;3.30;;
2021;SDS011;1015;49.756;6.994;2022-09-09T02:41:38;5.23;;;3.60;;
2021;SDS011;1015;49.756;6.994;2022-09-09T02:44:10;8.13;;;3.63;;
2021;SDS011;1015;49.756;6.994;2022-09-09T02:46:42;5.00;;;3.30;;
2021;SDS011;1015;49.756;6.994;2022-09-09T02:49:33;3.73;;;2.80;;
2021;SDS011;1015;49.756;6.994;2022-09-09T02:52:07;6.23;;;3.00;;
2021;SDS011;1015;49.756;6.994;2022-09-09T02:54:38;5.40;;;3.43;;
2021;SDS011;1015;49.756;6.994;2022-09-09T02:57:06;5.20;;;3.37;;
2021;SDS011;1015;49.756;6.994;2022-09-09T02:59:38;4.17;;;2.63;;
2021;SDS011;1015;49.756;6.994;2022-09-09T03:02:05;4.67;;;2.47;;
2021;SDS011;1015;49.756;6.994;2022-09-09T03:04:32;5.60;;;2.80;;
2021;SDS011;1015;49.756;6.994;2022-09-09T03:06:59;8.47;;;3.13;;
2021;SDS011;1015;49.756;6.994;2022-09-09T03:09:28;4.93;;;2.50;;
2021;SDS011;1015;49.756;6.994;2022-09-09T03:11:55;4.30;;;2.80;;
2021;SDS011;1015;49.756;6.994;2022-09-09T03:14:22;3.93;;;2.83;;
2021;SDS011;1015;49.756;6.994;2022-09-09T03:16:52;3.43;;;2.90;;
2021;SDS011;1015;49.756;6.994;2022-09-09T03:19:19;7.30;;;2.90;;
2021;SDS011;1015;49.756;6.994;2022-09-09T03:21:47;3.57;;;2.50;;
2021;SDS011;1015;49.756;6.994;2022-09-09T03:24:14;3.30;;;2.30;;
2021;SDS011;1015;49.756;6.994;2022-09-09T03:26:41;4.10;;;2.70;;
2021;SDS011;1015;49.756;6.994;2022-09-09T03:29:09;3.90;;;2.47;;
2021;SDS011;1015;49.756;6.994;2022-09-09T03:31:37;5.73;;;2.27;;
2021;SDS011;1015;49.756;6.994;2022-09-09T03:34:06;3.27;;;2.37;;
2021;SDS011;1015;49.756;6.994;2022-09-09T03:36:33;2.50;;;2.30;;
2021;SDS011;1015;49.756;6.994;2022-09-09T03:39:00;3.60;;;2.00;;
2021;SDS011;1015;49.756;6.994;2022-09-09T03:41:28;3.27;;;1.97;;
2021;SDS011;1015;49.756;6.994;2022-09-09T03:43:55;3.97;;;2.40;;
2021;SDS011;1015;49.756;6.994;2022-09-09T03:46:23;4.70;;;2.43;;
2021;SDS011;1015;49.756;6.994;2022-09-09T03:48:51;2.63;;;2.03;;
2021;SDS011;1015;49.756;6.994;2022-09-09T03:51:20;2.93;;;1.93;;
2021;SDS011;1015;49.756;6.994;2022-09-09T03:53:47;2.60;;;1.97;;
2021;SDS011;1015;49.756;6.994;2022-09-09T03:56:14;4.20;;;2.13;;
2021;SDS011;1015;49.756;6.994;2022-09-09T03:58:41;5.70;;;2.33;;
2021;SDS011;1015;49.756;6.994;2022-09-09T04:01:09;5.37;;;2.17;;
2021;SDS011;1015;49.756;6.994;2022-09-09T04:03:38;5.30;;;2.20;;
2021;SDS011;1015;49.756;6.994;2022-09-09T04:06:05;4.90;;;2.43;;
2021;SDS011;1015;49.756;6.994;2022-09-09T04:08:35;5.47;;;2.00;;
2021;SDS011;1015;49.756;6.994;2022-09-09T04:11:03;5.83;;;2.10;;
2021;SDS011;1015;49.756;6.994;2022-09-09T04:13:31;6.53;;;2.13;;
2021;SDS011;1015;49.756;6.994;2022-09-09T04:15:59;4.80;;;2.00;;
2021;SDS011;1015;49.756;6.994;2022-09-09T04:18:28;5.23;;;2.10;;
2021;SDS011;1015;49.756;6.994;2022-09-09T04:20:56;4.80;;;2.80;;
2021;SDS011;1015;49.756;6.994;2022-09-09T04:23:23;2.40;;;1.90;;
2021;SDS011;1015;49.756;6.994;2022-09-09T04:25:55;7.73;;;2.50;;
2021;SDS011;1015;49.756;6.994;2022-09-09T04:28:24;2.60;;;2.00;;
2021;SDS011;1015;49.756;6.994;2022-09-09T04:30:52;5.47;;;2.63;;
2021;SDS011;1015;49.756;6.994;2022-09-09T04:33:19;4.97;;;2.53;;
2021;SDS011;1015;49.756;6.994;2022-09-09T04:35:47;5.37;;;2.60;;
2021;SDS011;1015;49.756;6.994;2022-09-09T04:38:15;4.93;;;2.13;;
2021;SDS011;1015;49.756;6.994;2022-09-09T04:40:43;2.93;;;2.10;;
2021;SDS011;1015;49.756;6.994;2022-09-09T04:43:12;5.03;;;2.47;;
2021;SDS011;1015;49.756;6.994;2022-09-09T04:45:39;8.30;;;2.60;;
2021;SDS011;1015;49.756;6.994;2022-09-09T04:48:06;5.43;;;2.27;;
2021;SDS011;1015;49.756;6.994;2022-09-09T04:50:34;5.53;;;2.60;;
2021;SDS011;1015;49.756;6.994;2022-09-09T04:53:02;5.93;;;2.30;;
2021;SDS011;1015;49.756;6.994;2022-09-09T04:55:29;5.70;;;1.97;;
2021;SDS011;1015;49.756;6.994;2022-09-09T04:57:57;5.87;;;2.60;;
2021;SDS011;1015;49.756;6.994;2022-09-09T05:00:25;4.40;;;2.23;;
2021;SDS011;1015;49.756;6.994;2022-09-09T05:02:52;5.47;;;2.43;;
2021;SDS011;1015;49.756;6.994;2022-09-09T05:05:19;6.80;;;2.20;;
2021;SDS011;1015;49.756;6.994;2022-09-09T05:07:46;7.07;;;2.20;;
2021;SDS011;1015;49.756;6.994;2022-09-09T05:10:13;4.17;;;2.00;;
2021;SDS011;1015;49.756;6.994;2022-09-09T05:12:42;6.47;;;2.67;;
2021;SDS011;1015;49.756;6.994;2022-09-09T05:15:09;4.57;;;2.00;;
2021;SDS011;1015;49.756;6.994;2022-09-09T05:17:38;4.43;;;2.57;;
2021;SDS011;1015;49.756;6.994;2022-09-09T05:20:05;8.33;;;2.73;;
2021;SDS011;1015;49.756;6.994;2022-09-09T05:22:32;6.17;;;2.30;;
2021;SDS011;1015;49.756;6.994;2022-09-09T05:24:59;4.13;;;2.30;;
2021;SDS011;1015;49.756;6.994;2022-09-09T05:27:26;5.07;;;2.20;;
2021;SDS011;1015;49.756;6.994;2022-09-09T05:29:53;5.23;;;2.20;;
2021;SDS011;1015;49.756;6.994;2022-09-09T05:32:21;2.53;;;1.93;;
2021;SDS011;1015;49.756;6.994;2022-09-09T05:34:50;5.33;;;2.47;;
2021;SDS011;1015;49.756;6.994;2022-09-09T05:37:17;6.30;;;2.50;;
2021;SDS011;1015;49.756;6.994;2022-09-09T05:39:44;3.97;;;2.20;;
2021;SDS011;1015;49.756;6.994;2022-09-09T05:42:11;3.73;;;2.17;;
2021;SDS011;1015;49.756;6.994;2022-09-09T05:44:38;5.37;;;2.50;;
2021;SDS011;1015;49.756;6.994;2022-09-09T05:47:07;5.13;;;2.17;;
2021;SDS011;1015;49.756;6.994;2022-09-09T05:49:34;5.47;;;2.10;;
2021;SDS011;1015;49.756;6.994;2022-09-09T05:52:03;3.87;;;2.20;;
2021;SDS011;1015;49.756;6.994;2022-09-09T05:54:30;5.47;;;2.17;;
2021;SDS011;1015;49.756;6.994;2022-09-09T05:56:57;7.57;;;2.20;;
2021;SDS011;1015;49.756;6.994;2022-09-09T05:59:24;6.00;;;2.00;;
2021;SDS011;1015;49.756;6.994;2022-09-09T06:01:51;2.73;;;1.90;;
2021;SDS011;1015;49.756;6.994;2022-09-09T06:04:18;3.33;;;1.83;;
2021;SDS011;1015;49.756;6.994;2022-09-09T06:06:46;5.17;;;2.17;;
2021;SDS011;1015;49.756;6.994;2022-09-09T06:09:15;3.17;;;1.83;;
2021;SDS011;1015;49.756;6.994;2022-09-09T06:11:42;3.67;;;2.03;;
2021;SDS011;1015;49.756;6.994;2022-09-09T06:14:09;4.20;;;2.40;;
2021;SDS011;1015;49.756;6.994;2022-09-09T06:16:36;7.27;;;2.40;;
2021;SDS011;1015;49.756;6.994;2022-09-09T06:19:03;4.33;;;2.07;;
2021;SDS011;1015;49.756;6.994;2022-09-09T06:21:31;4.90;;;2.40;;
2021;SDS011;1015;49.756;6.994;2022-09-09T06:24:01;3.77;;;2.30;;
2021;SDS011;1015;49.756;6.994;2022-09-09T06:26:30;6.37;;;2.07;;
2021;SDS011;1015;49.756;6.994;2022-09-09T06:28:59;5.37;;;2.17;;
2021;SDS011;1015;49.756;6.994;2022-09-09T06:31:29;4.30;;;2.57;;
2021;SDS011;1015;49.756;6.994;2022-09-09T06:33:59;7.70;;;2.07;;
2021;SDS011;1015;49.756;6.994;2022-09-09T06:36:27;2.93;;;1.60;;
2021;SDS011;1015;49.756;6.994;2022-09-09T06:38:56;6.20;;;1.77;;
2021;SDS011;1015;49.756;6.994;2022-09-09T06:41:25;6.30;;;2.10;;
2021;SDS011;1015;49.756;6.994;2022-09-09T06:43:55;4.77;;;2.10;;
2021;SDS011;1015;49.756;6.994;2022-09-09T06:46:23;8.33;;;2.63;;
2021;SDS011;1015;49.756;6.994;2022-09-09T06:48:52;5.43;;;2.23;;
2021;SDS011;1015;49.756;6.994;2022-09-09T06:51:21;7.10;;;2.57;;
2021;SDS011;1015;49.756;6.994;2022-09-09T06:53:51;6.70;;;2.27;;
2021;SDS011;1015;49.756;6.994;2022-09-09T06:56:21;4.03;;;2.37;;
2021;SDS011;1015;49.756;6.994;2022-09-09T06:58:49;5.53;;;2.43;;
2021;SDS011;1015;49.756;6.994;2022-09-09T07:01:19;3.60;;;2.13;;
2021;SDS011;1015;49.756;6.994;2022-09-09T07:03:47;6.53;;;2.33;;
2021;SDS011;1015;49.756;6.994;2022-09-09T07:06:16;5.43;;;2.13;;
2021;SDS011;1015;49.756;6.994;2022-09-09T07:08:48;5.33;;;2.30;;
2021;SDS011;1015;49.756;6.994;2022-09-09T07:11:16;4.50;;;2.53;;
2021;SDS011;1015;49.756;6.994;2022-09-09T07:13:44;6.10;;;1.97;;
2021;SDS011;1015;49.756;6.994;2022-09-09T07:16:12;4.47;;;1.93;;
2021;SDS011;1015;49.756;6.994;2022-09-09T07:18:42;3.80;;;2.37;;
2021;SDS011;1015;49.756;6.994;2022-09-09T07:21:10;4.17;;;2.13;;
2021;SDS011;1015;49.756;6.994;2022-09-09T07:23:38;3.33;;;2.20;;
2021;SDS011;1015;49.756;6.994;2022-09-09T07:26:07;3.87;;;2.13;;
2021;SDS011;1015;49.756;6.994;2022-09-09T07:28:36;4.80;;;1.90;;
2021;SDS011;1015;49.756;6.994;2022-09-09T07:31:04;7.43;;;1.90;;
2021;SDS011;1015;49.756;6.994;2022-09-09T07:33:33;4.73;;;2.00;;
2021;SDS011;1015;49.756;6.994;2022-09-09T07:36:06;4.00;;;2.13;;
2021;SDS011;1015;49.756;6.994;2022-09-09T07:38:37;6.03;;;2.03;;
2021;SDS011;1015;49.756;6.994;2022-09-09T07:41:05;3.83;;;1.93;;
2021;SDS011;1015;49.756;6.994;2022-09-09T07:43:36;6.30;;;1.97;;
2021;SDS011;1015;49.756;6.994;2022-09-09T07:46:04;7.27;;;2.00;;
2021;SDS011;1015;49.756;6.994;2022-09-09T07:48:31;4.20;;;1.70;;
2021;SDS011;1015;49.756;6.994;2022-09-09T07:51:07;6.47;;;1.90;;
2021;SDS011;1015;49.756;6.994;2022-09-09T07:53:36;6.23;;;2.00;;
2021;SDS011;1015;49.756;6.994;2022-09-09T07:56:05;4.30;;;1.77;;
2021;SDS011;1015;49.756;6.994;2022-09-09T07:58:34;4.27;;;1.90;;
2021;SDS011;1015;49.756;6.994;2022-09-09T08:01:05;4.20;;;1.60;;
2021;SDS011;1015;49.756;6.994;2022-09-09T08:03:34;5.27;;;1.83;;
2021;SDS011;1015;49.756;6.994;2022-09-09T08:06:01;3.27;;;1.40;;
2021;SDS011;1015;49.756;6.994;2022-09-09T08:08:31;4.03;;;1.60;;
2021;SDS011;1015;49.756;6.994;2022-09-09T08:11:07;2.10;;;1.40;;
2021;SDS011;1015;49.756;6.994;2022-09-09T08:13:36;4.30;;;1.77;;
2021;SDS011;1015;49.756;6.994;2022-09-09T08:16:06;2.80;;;1.53;;
2021;SDS011;1015;49.756;6.994;2022-09-09T08:18:34;6.30;;;1.57;;
2021;SDS011;1015;49.756;6.994;2022-09-09T08:21:05;6.67;;;1.77;;
2021;SDS011;1015;49.756;6.994;2022-09-09T08:23:35;3.73;;;1.90;;
2021;SDS011;1015;49.756;6.994;2022-09-09T08:26:04;3.83;;;1.73;;
2021;SDS011;1015;49.756;6.994;2022-09-09T08:28:34;2.60;;;1.63;;
2021;SDS011;1015;49.756;6.994;2022-09-09T08:31:04;4.77;;;1.80;;
2021;SDS011;1015;49.756;6.994;2022-09-09T08:33:33;2.23;;;1.53;;
2021;SDS011;1015;49.756;6.994;2022-09-09T08:36:01;5.07;;;1.77;;
2021;SDS011;1015;49.756;6.994;2022-09-09T08:38:29;2.23;;;1.63;;
2021;SDS011;1015;49.756;6.994;2022-09-09T08:40:58;3.17;;;1.80;;
2021;SDS011;1015;49.756;6.994;2022-09-09T08:43:37;4.03;;;1.60;;
2021;SDS011;1015;49.756;6.994;2022-09-09T08:46:06;2.10;;;1.50;;
2021;SDS011;1015;49.756;6.994;2022-09-09T08:48:39;2.90;;;1.33;;
2021;SDS011;1015;49.756;6.994;2022-09-09T08:51:12;5.13;;;1.70;;
2021;SDS011;1015;49.756;6.994;2022-09-09T08:53:41;3.40;;;1.53;;
2021;SDS011;1015;49.756;6.994;2022-09-09T08:56:12;2.87;;;1.47;;
2021;SDS011;1015;49.756;6.994;2022-09-09T08:58:43;3.57;;;1.27;;
2021;SDS011;1015;49.756;6.994;2022-09-09T09:01:19;2.70;;;1.57;;
2021;SDS011;1015;49.756;6.994;2022-09-09T09:03:57;4.10;;;1.80;;
2021;SDS011;1015;49.756;6.994;2022-09-09T09:06:35;4.83;;;1.53;;
2021;SDS011;1015;49.756;6.994;2022-09-09T09:09:11;6.20;;;1.80;;
2021;SDS011;1015;49.756;6.994;2022-09-09T09:11:44;4.93;;;1.87;;
2021;SDS011;1015;49.756;6.994;2022-09-09T09:14:16;3.40;;;1.60;;
2021;SDS011;1015;49.756;6.994;2022-09-09T09:16:48;3.40;;;1.90;;
2021;SDS011;1015;49.756;6.994;2022-09-09T09:19:20;3.53;;;1.60;;
2021;SDS011;1015;49.756;6.994;2022-09-09T09:21:51;4.17;;;1.87;;
2021;SDS011;1015;49.756;6.994;2022-09-09T09:24:23;6.97;;;1.57;;
2021;SDS011;1015;49.756;6.994;2022-09-09T09:26:58;4.97;;;2.20;;
2021;SDS011;1015;49.756;6.994;2022-09-09T09:29:34;3.00;;;1.67;;
2021;SDS011;1015;49.756;6.994;2022-09-09T09:32:02;3.47;;;2.03;;
2021;SDS011;1015;49.756;6.994;2022-09-09T09:34:30;5.40;;;2.40;;
2021;SDS011;1015;49.756;6.994;2022-09-09T09:36:57;4.47;;;2.43;;
2021;SDS011;1015;49.756;6.994;2022-09-09T09:39:27;5.43;;;2.27;;
2021;SDS011;1015;49.756;6.994;2022-09-09T09:41:56;7.63;;;2.30;;
2021;SDS011;1015;49.756;6.994;2022-09-09T09:44:28;5.80;;;1.93;;
2021;SDS011;1015;49.756;6.994;2022-09-09T09:47:06;2.70;;;2.10;;
2021;SDS011;1015;49.756;6.994;2022-09-09T09:49:34;3.30;;;2.10;;
2021;SDS011;1015;49.756;6.994;2022-09-09T09:52:02;2.67;;;2.10;;
2021;SDS011;1015;49.756;6.994;2022-09-09T09:54:29;4.43;;;2.03;;
2021;SDS011;1015;49.756;6.994;2022-09-09T09:57:07;3.50;;;2.00;;
2021;SDS011;1015;49.756;6.994;2022-09-09T09:59:37;5.37;;;2.00;;
2021;SDS011;1015;49.756;6.994;2022-09-09T10:02:06;3.40;;;2.07;;
2021;SDS011;1015;49.756;6.994;2022-09-09T10:04:42;5.63;;;2.10;;
2021;SDS011;1015;49.756;6.994;2022-09-09T10:07:11;4.47;;;1.90;;
2021;SDS011;1015;49.756;6.994;2022-09-09T10:09:39;6.20;;;2.03;;
2021;SDS011;1015;49.756;6.994;2022-09-09T10:12:09;3.50;;;1.83;;
2021;SDS011;1015;49.756;6.994;2022-09-09T10:14:49;3.50;;;1.63;;
2021;SDS011;1015;49.756;6.994;2022-09-09T10:17:27;6.17;;;1.90;;
2021;SDS011;1015;49.756;6.994;2022-09-09T10:20:11;3.40;;;1.60;;
2021;SDS011;1015;49.756;6.994;2022-09-09T10:22:50;2.70;;;1.37;;
2021;SDS011;1015;49.756;6.994;2022-09-09T10:25:33;3.57;;;1.70;;
2021;SDS011;1015;49.756;6.994;2022-09-09T10:28:15;3.80;;;1.37;;
2021;SDS011;1015;49.756;6.994;2022-09-09T10:31:00;3.93;;;1.27;;
2021;SDS011;1015;49.756;6.994;2022-09-09T10:33:41;8.73;;;1.70;;
2021;SDS011;1015;49.756;6.994;2022-09-09T10:36:17;4.13;;;1.20;;
2021;SDS011;1015;49.756;6.994;2022-09-09T10:38:46;3.10;;;1.43;;
2021;SDS011;1015;49.756;6.994;2022-09-09T10:41:19;2.90;;;1.30;;
2021;SDS011;1015;49.756;6.994;2022-09-09T10:47:03;2.80;;;1.60;;
2021;SDS011;1015;49.756;6.994;2022-09-09T10:49:52;3.40;;;1.40;;
2021;SDS011;1015;49.756;6.994;2022-09-09T10:52:41;3.70;;;1.60;;
2021;SDS011;1015;49.756;6.994;2022-09-09T10:55:14;4.00;;;1.50;;
2021;SDS011;1015;49.756;6.994;2022-09-09T10:57:45;2.30;;;1.53;;
2021;SDS011;1015;49.756;6.994;2022-09-09T11:00:15;3.87;;;1.77;;
2021;SDS011;1015;49.756;6.994;2022-09-09T11:02:46;2.83;;;1.60;;
2021;SDS011;1015;49.756;6.994;2022-09-09T11:05:18;3.30;;;1.43;;
2021;SDS011;1015;49.756;6.994;2022-09-09T11:07:47;2.93;;;1.40;;
2021;SDS011;1015;49.756;6.994;2022-09-09T11:10:20;3.30;;;1.43;;
2021;SDS011;1015;49.756;6.994;2022-09-09T11:12:52;3.23;;;1.20;;
2021;SDS011;1015;49.756;6.994;2022-09-09T11:15:25;2.70;;;1.30;;
2021;SDS011;1015;49.756;6.994;2022-09-09T11:18:00;4.00;;;1.43;;
2021;SDS011;1015;49.756;6.994;2022-09-09T11:20:31;2.03;;;1.30;;
2021;SDS011;1015;49.756;6.994;2022-09-09T11:22:58;2.60;;;1.27;;
2021;SDS011;1015;49.756;6.994;2022-09-09T11:25:29;2.03;;;1.00;;
2021;SDS011;1015;49.756;6.994;2022-09-09T11:28:09;3.47;;;1.10;;
2021;SDS011;1015;49.756;6.994;2022-09-09T11:30:51;2.20;;;1.20;;
2021;SDS011;1015;49.756;6.994;2022-09-09T11:33:37;3.80;;;1.10;;
2021;SDS011;1015;49.756;6.994;2022-09-09T11:36:31;3.00;;;1.30;;
2021;SDS011;1015;49.756;6.994;2022-09-09T11:39:31;3.50;;;1.23;;
2021;SDS011;1015;49.756;6.994;2022-09-09T11:42:15;1.27;;;1.17;;
2021;SDS011;1015;49.756;6.994;2022-09-09T11:44:44;4.43;;;1.37;;
2021;SDS011;1015;49.756;6.994;2022-09-09T11:47:22;2.70;;;1.10;;
2021;SDS011;1015;49.756;6.994;2022-09-09T11:49:55;1.10;;;0.80;;
2021;SDS011;1015;49.756;6.994;2022-09-09T11:52:36;2.60;;;0.87;;
2021;SDS011;1015;49.756;6.994;2022-09-09T11:55:08;2.10;;;1.00;;
2021;SDS011;1015;49.756;6.994;2022-09-09T11:57:36;1.30;;;0.97;;
2021;SDS011;1015;49.756;6.994;2022-09-09T12:00:05;1.87;;;1.17;;
2021;SDS011;1015;49.756;6.994;2022-09-09T12:02:32;3.83;;;0.90;;
2021;SDS011;1015;49.756;6.994;2022-09-09T12:05:04;2.20;;;1.00;;
2021;SDS011;1015;49.756;6.994;2022-09-09T12:07:35;6.07;;;1.33;;
2021;SDS011;1015;49.756;6.994;2022-09-09T12:10:05;3.70;;;1.50;;
2021;SDS011;1015;49.756;6.994;2022-09-09T12:12:48;3.77;;;1.50;;
2021;SDS011;1015;49.756;6.994;2022-09-09T12:15:25;3.07;;;1.40;;
2021;SDS011;1015;49.756;6.994;2022-09-09T12:17:54;1.73;;;1.33;;
2021;SDS011;1015;49.756;6.994;2022-09-09T12:20:26;1.60;;;1.03;;
2021;SDS011;1015;49.756;6.994;2022-09-09T12:25:49;2.03;;;1.10;;
2021;SDS011;1015;49.756;6.994;2022-09-09T12:28:25;1.33;;;1.00;;
2021;SDS011;1015;49.756;6.994;2022-09-09T12:31:05;2.90;;;1.30;;
2021;SDS011;1015;49.756;6.994;2022-09-09T12:33:39;1.20;;;1.10;;
2021;SDS011;1015;49.756;6.994;2022-09-09T12:36:11;1.83;;;1.10;;
2021;SDS011;1015;49.756;6.994;2022-09-09T12:38:42;3.17;;;1.20;;
2021;SDS011;1015;49.756;6.994;2022-09-09T12:41:17;3.83;;;1.20;;
2021;SDS011;1015;49.756;6.994;2022-09-09T12:43:47;2.07;;;1.10;;
2021;SDS011;1015;49.756;6.994;2022-09-09T12:46:17;3.97;;;1.50;;
2021;SDS011;1015;49.756;6.994;2022-09-09T12:48:51;1.80;;;1.10;;
2021;SDS011;1015;49.756;6.994;2022-09-09T12:51:23;2.10;;;1.07;;
2021;SDS011;1015;49.756;6.994;2022-09-09T12:53:53;3.30;;;1.30;;
2021;SDS011;1015;49.756;6.994;2022-09-09T12:56:22;2.30;;;1.03;;
2021;SDS011;1015;49.756;6.994;2022-09-09T12:58:51;3.43;;;1.50;;
2021;SDS011;1015;49.756;6.994;2022-09-09T13:01:22;3.00;;;1.10;;
2021;SDS011;1015;49.756;6.994;2022-09-09T13:03:50;2.20;;;1.20;;
2021;SDS011;1015;49.756;6.994;2022-09-09T13:06:19;2.30;;;0.90;;
2021;SDS011;1015;49.756;6.994;2022-09-09T13:08:49;1.47;;;1.30;;
2021;SDS011;1015;49.756;6.994;2022-09-09T13:11:17;1.80;;;1.20;;
2021;SDS011;1015;49.756;6.994;2022-09-09T13:13:50;1.27;;;1.00;;
2021;SDS011;1015;49.756;6.994;2022-09-09T13:16:19;2.97;;;1.37;;
2021;SDS011;1015;49.756;6.994;2022-09-09T13:18:49;1.73;;;1.20;;
2021;SDS011;1015;49.756;6.994;2022-09-09T13:21:16;4.33;;;1.20;;
2021;SDS011;1015;49.756;6.994;2022-09-09T13:23:49;3.77;;;1.37;;
2021;SDS011;1015;49.756;6.994;2022-09-09T13:26:21;2.80;;;1.20;;
2021;SDS011;1015;49.756;6.994;2022-09-09T13:28:50;2.20;;;1.30;;
2021;SDS011;1015;49.756;6.994;2022-09-09T13:31:20;1.97;;;1.10;;
2021;SDS011;1015;49.756;6.994;2022-09-09T13:33:49;1.93;;;0.87;;
2021;SDS011;1015;49.756;6.994;2022-09-09T13:36:26;3.27;;;1.20;;
2021;SDS011;1015;49.756;6.994;2022-09-09T13:38:56;2.27;;;1.10;;
2021;SDS011;1015;49.756;6.994;2022-09-09T13:41:25;3.03;;;1.10;;
2021;SDS011;1015;49.756;6.994;2022-09-09T13:43:56;2.00;;;1.00;;
2021;SDS011;1015;49.756;6.994;2022-09-09T13:46:25;3.03;;;1.30;;
2021;SDS011;1015;49.756;6.994;2022-09-09T13:48:58;1.27;;;1.00;;
2021;SDS011;1015;49.756;6.994;2022-09-09T13:51:37;1.47;;;1.13;;
2021;SDS011;1015;49.756;6.994;2022-09-09T13:54:06;2.40;;;1.17;;
2021;SDS011;1015;49.756;6.994;2022-09-09T13:56:36;1.10;;;0.80;;
2021;SDS011;1015;49.756;6.994;2022-09-09T13:59:05;1.60;;;1.23;;
2021;SDS011;1015;49.756;6.994;2022-09-09T14:01:35;2.30;;;1.20;;
2021;SDS011;1015;49.756;6.994;2022-09-09T14:04:02;1.87;;;1.20;;
2021;SDS011;1015;49.756;6.994;2022-09-09T14:06:30;2.60;;;1.10;;
2021;SDS011;1015;49.756;6.994;2022-09-09T14:08:57;2.53;;;1.10;;
2021;SDS011;1015;49.756;6.994;2022-09-09T14:11:25;1.80;;;1.30;;
2021;SDS011;1015;49.756;6.994;2022-09-09T14:13:52;2.83;;;1.17;;
2021;SDS011;1015;49.756;6.994;2022-09-09T14:16:19;2.33;;;1.00;;
2021;SDS011;1015;49.756;6.994;2022-09-09T14:18:46;2.27;;;1.23;;
2021;SDS011;1015;49.756;6.994;2022-09-09T14:21:13;2.73;;;1.07;;
2021;SDS011;1015;49.756;6.994;2022-09-09T14:23:40;2.30;;;1.20;;
2021;SDS011;1015;49.756;6.994;2022-09-09T14:26:08;1.40;;;1.10;;
2021;SDS011;1015;49.756;6.994;2022-09-09T14:28:36;4.03;;;1.13;;
2021;SDS011;1015;49.756;6.994;2022-09-09T14:31:05;3.00;;;1.23;;
2021;SDS011;1015;49.756;6.994;2022-09-09T14:33:32;2.23;;;1.30;;
2021;SDS011;1015;49.756;6.994;2022-09-09T14:36:00;2.87;;;1.37;;
2021;SDS011;1015;49.756;6.994;2022-09-09T14:38:28;3.10;;;1.50;;
2021;SDS011;1015;49.756;6.994;2022-09-09T14:40:56;2.60;;;1.10;;
2021;SDS011;1015;49.756;6.994;2022-09-09T14:43:23;2.53;;;1.00;;
2021;SDS011;1015;49.756;6.994;2022-09-09T14:45:52;1.27;;;0.67;;
2021;SDS011;1015;49.756;6.994;2022-09-09T14:48:19;0.70;;;0.60;;
2021;SDS011;1015;49.756;6.994;2022-09-09T14:50:46;1.80;;;0.70;;
2021;SDS011;1015;49.756;6.994;2022-09-09T14:53:15;0.80;;;0.70;;
2021;SDS011;1015;49.756;6.994;2022-09-09T14:55:43;0.80;;;0.70;;
2021;SDS011;1015;49.756;6.994;2022-09-09T14:58:11;0.93;;;0.63;;
2021;SDS011;1015;49.756;6.994;2022-09-09T15:00:38;1.70;;;0.80;;
2021;SDS011;1015;49.756;6.994;2022-09-09T15:03:07;0.93;;;0.70;;
2021;SDS011;1015;49.756;6.994;2022-09-09T15:05:35;1.30;;;0.80;;
2021;SDS011;1015;49.756;6.994;2022-09-09T15:08:02;1.00;;;0.70;;
2021;SDS011;1015;49.756;6.994;2022-09-09T15:10:29;0.90;;;0.60;;
2021;SDS011;1015;49.756;6.994;2022-09-09T15:12:58;0.97;;;0.80;;
2021;SDS011;1015;49.756;6.994;2022-09-09T15:15:25;1.70;;;0.93;;
2021;SDS011;1015;49.756;6.994;2022-09-09T15:17:52;2.20;;;0.87;;
2021;SDS011;1015;49.756;6.994;2022-09-09T15:20:20;1.37;;;0.90;;
2021;SDS011;1015;49.756;6.994;2022-09-09T15:22:47;1.20;;;0.93;;
2021;SDS011;1015;49.756;6.994;2022-09-09T15:25:15;2.50;;;0.97;;
2021;SDS011;1015;49.756;6.994;2022-09-09T15:27:43;1.57;;;1.03;;
2021;SDS011;1015;49.756;6.994;2022-09-09T15:30:10;1.80;;;1.10;;
2021;SDS011;1015;49.756;6.994;2022-09-09T15:32:38;3.53;;;1.10;;
2021;SDS011;1015;49.756;6.994;2022-09-09T15:35:05;3.03;;;1.10;;
2021;SDS011;1015;49.756;6.994;2022-09-09T15:37:34;3.17;;;1.10;;
2021;SDS011;1015;49.756;6.994;2022-09-09T15:40:01;1.80;;;0.90;;
2021;SDS011;1015;49.756;6.994;2022-09-09T15:42:29;1.73;;;1.10;;
2021;SDS011;1015;49.756;6.994;2022-09-09T15:44:56;1.37;;;0.70;;
2021;SDS011;1015;49.756;6.994;2022-09-09T15:47:24;1.20;;;0.97;;